sensor_id;sensor_type;location;lat;lon;timestamp;P1;durP1;ratioP1;P2;durP2;ratioP2
57023;SDS011;42916;54.346;18.562;2022-09-06T00:00:08;9.60;;;4.90;;
57023;SDS011;42916;54.346;18.562;2022-09-06T00:02:53;10.30;;;5.60;;
57023;SDS011;42916;54.346;18.562;2022-09-06T00:05:20;9.40;;;5.10;;
57023;SDS011;42916;54.346;18.562;2022-09-06T00:07:47;10.30;;;5.90;;
57023;SDS011;42916;54.346;18.562;2022-09-06T00:10:13;10.30;;;5.30;;
57023;SDS011;42916;54.346;18.562;2022-09-06T00:12:40;9.20;;;5.60;;
57023;SDS011;42916;54.346;18.562;2022-09-06T00:15:07;8.10;;;5.00;;
57023;SDS011;42916;54.346;18.562;2022-09-06T00:17:34;7.90;;;4.70;;
57023;SDS011;42916;54.346;18.562;2022-09-06T00:20:02;10.40;;;5.30;;
57023;SDS011;42916;54.346;18.562;2022-09-06T00:22:29;9.40;;;5.70;;
57023;SDS011;42916;54.346;18.562;2022-09-06T00:24:56;14.10;;;5.30;;
57023;SDS011;42916;54.346;18.562;2022-09-06T00:27:23;10.40;;;5.70;;
57023;SDS011;42916;54.346;18.562;2022-09-06T00:29:49;10.10;;;4.90;;
57023;SDS011;42916;54.346;18.562;2022-09-06T00:32:16;12.00;;;5.20;;
57023;SDS011;42916;54.346;18.562;2022-09-06T00:34:42;12.80;;;6.20;;
57023;SDS011;42916;54.346;18.562;2022-09-06T00:37:09;10.30;;;5.60;;
57023;SDS011;42916;54.346;18.562;2022-09-06T00:39:36;8.80;;;5.00;;
57023;SDS011;42916;54.346;18.562;2022-09-06T00:42:06;8.70;;;5.30;;
57023;SDS011;42916;54.346;18.562;2022-09-06T00:44:33;9.60;;;4.80;;
57023;SDS011;42916;54.346;18.562;2022-09-06T00:47:00;9.90;;;5.10;;
57023;SDS011;42916;54.346;18.562;2022-09-06T00:49:28;10.30;;;5.20;;
57023;SDS011;42916;54.346;18.562;2022-09-06T00:52:00;10.70;;;5.30;;
57023;SDS011;42916;54.346;18.562;2022-09-06T00:54:30;8.10;;;4.90;;
57023;SDS011;42916;54.346;18.562;2022-09-06T00:56:57;9.40;;;4.80;;
57023;SDS011;42916;54.346;18.562;2022-09-06T00:59:25;8.20;;;4.90;;
57023;SDS011;42916;54.346;18.562;2022-09-06T01:01:54;8.20;;;4.50;;
57023;SDS011;42916;54.346;18.562;2022-09-06T01:04:21;7.70;;;4.70;;
57023;SDS011;42916;54.346;18.562;2022-09-06T01:18:03;13.00;;;5.40;;
57023;SDS011;42916;54.346;18.562;2022-09-06T01:20:43;11.60;;;5.40;;
57023;SDS011;42916;54.346;18.562;2022-09-06T01:32:10;10.60;;;5.40;;
57023;SDS011;42916;54.346;18.562;2022-09-06T01:34:46;8.60;;;5.40;;
57023;SDS011;42916;54.346;18.562;2022-09-06T01:37:18;10.20;;;5.30;;
57023;SDS011;42916;54.346;18.562;2022-09-06T01:39:47;11.80;;;5.30;;
57023;SDS011;42916;54.346;18.562;2022-09-06T01:42:35;10.60;;;5.50;;
57023;SDS011;42916;54.346;18.562;2022-09-06T01:45:07;9.30;;;5.30;;
57023;SDS011;42916;54.346;18.562;2022-09-06T01:47:38;10.90;;;4.70;;
57023;SDS011;42916;54.346;18.562;2022-09-06T01:53:09;7.80;;;5.00;;
57023;SDS011;42916;54.346;18.562;2022-09-06T02:06:42;12.50;;;5.70;;
57023;SDS011;42916;54.346;18.562;2022-09-06T02:09:24;9.00;;;5.10;;
57023;SDS011;42916;54.346;18.562;2022-09-06T02:11:58;9.90;;;4.80;;
57023;SDS011;42916;54.346;18.562;2022-09-06T02:14:31;9.00;;;4.90;;
57023;SDS011;42916;54.346;18.562;2022-09-06T02:17:03;5.90;;;3.80;;
57023;SDS011;42916;54.346;18.562;2022-09-06T02:19:34;9.50;;;4.50;;
57023;SDS011;42916;54.346;18.562;2022-09-06T02:22:06;7.90;;;4.40;;
57023;SDS011;42916;54.346;18.562;2022-09-06T02:24:36;7.80;;;4.20;;
57023;SDS011;42916;54.346;18.562;2022-09-06T02:29:33;6.70;;;3.70;;
57023;SDS011;42916;54.346;18.562;2022-09-06T02:32:10;7.40;;;4.10;;
57023;SDS011;42916;54.346;18.562;2022-09-06T02:34:43;9.80;;;4.70;;
57023;SDS011;42916;54.346;18.562;2022-09-06T02:37:11;6.90;;;3.90;;
57023;SDS011;42916;54.346;18.562;2022-09-06T02:39:39;6.50;;;3.90;;
57023;SDS011;42916;54.346;18.562;2022-09-06T02:42:06;9.30;;;4.50;;
57023;SDS011;42916;54.346;18.562;2022-09-06T02:44:35;9.00;;;5.00;;
57023;SDS011;42916;54.346;18.562;2022-09-06T02:47:02;7.80;;;4.20;;
57023;SDS011;42916;54.346;18.562;2022-09-06T02:49:28;8.40;;;4.50;;
57023;SDS011;42916;54.346;18.562;2022-09-06T02:51:56;7.40;;;3.70;;
57023;SDS011;42916;54.346;18.562;2022-09-06T02:54:23;8.30;;;4.20;;
57023;SDS011;42916;54.346;18.562;2022-09-06T02:56:50;10.30;;;4.70;;
57023;SDS011;42916;54.346;18.562;2022-09-06T02:59:16;7.80;;;3.80;;
57023;SDS011;42916;54.346;18.562;2022-09-06T03:01:43;8.30;;;4.60;;
57023;SDS011;42916;54.346;18.562;2022-09-06T03:04:09;8.00;;;4.10;;
57023;SDS011;42916;54.346;18.562;2022-09-06T03:06:36;6.20;;;3.90;;
57023;SDS011;42916;54.346;18.562;2022-09-06T03:09:02;6.20;;;3.60;;
57023;SDS011;42916;54.346;18.562;2022-09-06T03:11:29;11.40;;;4.30;;
57023;SDS011;42916;54.346;18.562;2022-09-06T03:13:56;6.60;;;3.90;;
57023;SDS011;42916;54.346;18.562;2022-09-06T03:16:22;7.50;;;3.50;;
57023;SDS011;42916;54.346;18.562;2022-09-06T03:18:49;6.10;;;3.40;;
57023;SDS011;42916;54.346;18.562;2022-09-06T03:21:15;5.30;;;2.90;;
57023;SDS011;42916;54.346;18.562;2022-09-06T03:23:42;6.70;;;3.50;;
57023;SDS011;42916;54.346;18.562;2022-09-06T03:26:08;8.10;;;3.10;;
57023;SDS011;42916;54.346;18.562;2022-09-06T03:28:35;6.50;;;3.90;;
57023;SDS011;42916;54.346;18.562;2022-09-06T03:31:01;5.60;;;3.40;;
57023;SDS011;42916;54.346;18.562;2022-09-06T03:33:28;7.80;;;3.80;;
57023;SDS011;42916;54.346;18.562;2022-09-06T03:35:57;8.50;;;3.90;;
57023;SDS011;42916;54.346;18.562;2022-09-06T03:38:25;7.40;;;3.80;;
57023;SDS011;42916;54.346;18.562;2022-09-06T03:40:53;6.50;;;3.70;;
57023;SDS011;42916;54.346;18.562;2022-09-06T03:43:21;6.40;;;3.90;;
57023;SDS011;42916;54.346;18.562;2022-09-06T03:45:50;6.50;;;3.40;;
57023;SDS011;42916;54.346;18.562;2022-09-06T03:48:19;8.20;;;3.90;;
57023;SDS011;42916;54.346;18.562;2022-09-06T03:50:48;8.10;;;4.10;;
57023;SDS011;42916;54.346;18.562;2022-09-06T03:55:45;6.70;;;3.80;;
57023;SDS011;42916;54.346;18.562;2022-09-06T03:58:13;5.70;;;3.60;;
57023;SDS011;42916;54.346;18.562;2022-09-06T04:00:41;7.20;;;3.90;;
57023;SDS011;42916;54.346;18.562;2022-09-06T04:03:07;7.60;;;4.30;;
57023;SDS011;42916;54.346;18.562;2022-09-06T04:05:34;7.90;;;3.80;;
57023;SDS011;42916;54.346;18.562;2022-09-06T04:08:01;7.30;;;4.20;;
57023;SDS011;42916;54.346;18.562;2022-09-06T04:10:28;7.70;;;3.80;;
57023;SDS011;42916;54.346;18.562;2022-09-06T04:12:54;5.40;;;3.20;;
57023;SDS011;42916;54.346;18.562;2022-09-06T04:15:21;6.50;;;3.60;;
57023;SDS011;42916;54.346;18.562;2022-09-06T04:17:47;6.90;;;3.60;;
57023;SDS011;42916;54.346;18.562;2022-09-06T04:20:14;6.70;;;3.70;;
57023;SDS011;42916;54.346;18.562;2022-09-06T04:22:41;5.70;;;3.40;;
57023;SDS011;42916;54.346;18.562;2022-09-06T04:25:08;6.30;;;3.60;;
57023;SDS011;42916;54.346;18.562;2022-09-06T04:27:35;6.90;;;3.60;;
57023;SDS011;42916;54.346;18.562;2022-09-06T04:30:02;5.40;;;3.20;;
57023;SDS011;42916;54.346;18.562;2022-09-06T04:32:29;6.00;;;2.90;;
57023;SDS011;42916;54.346;18.562;2022-09-06T04:34:57;5.00;;;3.30;;
57023;SDS011;42916;54.346;18.562;2022-09-06T04:37:24;6.40;;;3.40;;
57023;SDS011;42916;54.346;18.562;2022-09-06T04:39:50;7.10;;;4.10;;
57023;SDS011;42916;54.346;18.562;2022-09-06T04:42:17;6.60;;;4.00;;
57023;SDS011;42916;54.346;18.562;2022-09-06T04:44:43;7.10;;;4.00;;
57023;SDS011;42916;54.346;18.562;2022-09-06T04:47:13;8.00;;;3.90;;
57023;SDS011;42916;54.346;18.562;2022-09-06T04:49:41;5.80;;;3.90;;
57023;SDS011;42916;54.346;18.562;2022-09-06T04:52:08;6.40;;;3.70;;
57023;SDS011;42916;54.346;18.562;2022-09-06T04:54:36;7.30;;;3.50;;
57023;SDS011;42916;54.346;18.562;2022-09-06T04:57:03;7.40;;;3.60;;
57023;SDS011;42916;54.346;18.562;2022-09-06T04:59:29;7.10;;;3.80;;
57023;SDS011;42916;54.346;18.562;2022-09-06T05:01:56;7.30;;;3.90;;
57023;SDS011;42916;54.346;18.562;2022-09-06T05:04:22;5.40;;;3.60;;
57023;SDS011;42916;54.346;18.562;2022-09-06T05:07:04;6.20;;;3.40;;
57023;SDS011;42916;54.346;18.562;2022-09-06T05:09:32;6.80;;;3.40;;
57023;SDS011;42916;54.346;18.562;2022-09-06T05:12:00;8.60;;;4.00;;
57023;SDS011;42916;54.346;18.562;2022-09-06T05:14:27;7.10;;;3.50;;
57023;SDS011;42916;54.346;18.562;2022-09-06T05:16:54;6.00;;;3.10;;
57023;SDS011;42916;54.346;18.562;2022-09-06T05:19:21;6.10;;;3.70;;
57023;SDS011;42916;54.346;18.562;2022-09-06T05:21:49;8.10;;;3.40;;
57023;SDS011;42916;54.346;18.562;2022-09-06T05:24:16;5.50;;;3.40;;
57023;SDS011;42916;54.346;18.562;2022-09-06T05:26:43;6.10;;;3.30;;
57023;SDS011;42916;54.346;18.562;2022-09-06T05:29:09;4.50;;;2.80;;
57023;SDS011;42916;54.346;18.562;2022-09-06T05:31:36;8.30;;;3.30;;
57023;SDS011;42916;54.346;18.562;2022-09-06T05:34:02;6.00;;;2.90;;
57023;SDS011;42916;54.346;18.562;2022-09-06T05:36:29;6.40;;;2.80;;
57023;SDS011;42916;54.346;18.562;2022-09-06T05:38:56;5.80;;;2.90;;
57023;SDS011;42916;54.346;18.562;2022-09-06T05:41:24;7.10;;;2.80;;
57023;SDS011;42916;54.346;18.562;2022-09-06T05:43:50;8.90;;;3.00;;
57023;SDS011;42916;54.346;18.562;2022-09-06T05:46:17;9.80;;;2.90;;
57023;SDS011;42916;54.346;18.562;2022-09-06T05:48:54;5.30;;;2.30;;
57023;SDS011;42916;54.346;18.562;2022-09-06T05:51:25;7.40;;;2.20;;
57023;SDS011;42916;54.346;18.562;2022-09-06T05:53:52;5.50;;;2.00;;
57023;SDS011;42916;54.346;18.562;2022-09-06T05:56:18;6.10;;;1.80;;
57023;SDS011;42916;54.346;18.562;2022-09-06T05:58:45;6.30;;;1.70;;
57023;SDS011;42916;54.346;18.562;2022-09-06T06:01:23;3.60;;;1.40;;
57023;SDS011;42916;54.346;18.562;2022-09-06T06:03:55;3.60;;;1.70;;
57023;SDS011;42916;54.346;18.562;2022-09-06T06:06:24;4.20;;;1.60;;
57023;SDS011;42916;54.346;18.562;2022-09-06T06:08:53;4.40;;;1.30;;
57023;SDS011;42916;54.346;18.562;2022-09-06T06:11:20;3.10;;;1.30;;
57023;SDS011;42916;54.346;18.562;2022-09-06T06:13:46;2.50;;;1.00;;
57023;SDS011;42916;54.346;18.562;2022-09-06T06:16:14;3.30;;;1.20;;
57023;SDS011;42916;54.346;18.562;2022-09-06T06:18:42;5.10;;;1.10;;
57023;SDS011;42916;54.346;18.562;2022-09-06T06:23:40;4.30;;;1.30;;
57023;SDS011;42916;54.346;18.562;2022-09-06T06:26:09;2.90;;;1.00;;
57023;SDS011;42916;54.346;18.562;2022-09-06T06:28:37;3.60;;;1.10;;
57023;SDS011;42916;54.346;18.562;2022-09-06T06:31:04;3.20;;;0.90;;
57023;SDS011;42916;54.346;18.562;2022-09-06T06:33:32;1.90;;;0.70;;
57023;SDS011;42916;54.346;18.562;2022-09-06T06:36:03;2.80;;;1.00;;
57023;SDS011;42916;54.346;18.562;2022-09-06T06:38:36;2.80;;;0.80;;
57023;SDS011;42916;54.346;18.562;2022-09-06T06:41:03;2.30;;;0.80;;
57023;SDS011;42916;54.346;18.562;2022-09-06T06:43:31;1.40;;;0.60;;
57023;SDS011;42916;54.346;18.562;2022-09-06T06:46:09;2.10;;;0.80;;
57023;SDS011;42916;54.346;18.562;2022-09-06T06:48:38;1.70;;;0.80;;
57023;SDS011;42916;54.346;18.562;2022-09-06T06:51:07;3.40;;;0.80;;
57023;SDS011;42916;54.346;18.562;2022-09-06T06:53:34;2.50;;;0.90;;
57023;SDS011;42916;54.346;18.562;2022-09-06T06:56:11;1.00;;;0.80;;
57023;SDS011;42916;54.346;18.562;2022-09-06T06:58:42;2.40;;;0.60;;
57023;SDS011;42916;54.346;18.562;2022-09-06T07:01:10;2.00;;;0.80;;
57023;SDS011;42916;54.346;18.562;2022-09-06T07:03:39;1.80;;;0.90;;
57023;SDS011;42916;54.346;18.562;2022-09-06T07:06:05;2.80;;;0.60;;
57023;SDS011;42916;54.346;18.562;2022-09-06T07:08:32;2.20;;;0.70;;
57023;SDS011;42916;54.346;18.562;2022-09-06T07:10:59;0.80;;;0.50;;
57023;SDS011;42916;54.346;18.562;2022-09-06T07:13:26;0.80;;;0.70;;
57023;SDS011;42916;54.346;18.562;2022-09-06T07:16:04;2.40;;;0.90;;
57023;SDS011;42916;54.346;18.562;2022-09-06T07:18:34;1.90;;;1.00;;
57023;SDS011;42916;54.346;18.562;2022-09-06T07:21:02;3.10;;;0.70;;
57023;SDS011;42916;54.346;18.562;2022-09-06T07:23:29;1.40;;;0.70;;
57023;SDS011;42916;54.346;18.562;2022-09-06T07:25:56;2.00;;;0.50;;
57023;SDS011;42916;54.346;18.562;2022-09-06T07:28:22;0.90;;;0.60;;
57023;SDS011;42916;54.346;18.562;2022-09-06T07:30:51;0.60;;;0.60;;
57023;SDS011;42916;54.346;18.562;2022-09-06T07:33:20;0.90;;;0.60;;
57023;SDS011;42916;54.346;18.562;2022-09-06T07:35:56;2.00;;;0.70;;
57023;SDS011;42916;54.346;18.562;2022-09-06T07:38:28;2.00;;;0.70;;
57023;SDS011;42916;54.346;18.562;2022-09-06T07:40:59;1.90;;;0.60;;
57023;SDS011;42916;54.346;18.562;2022-09-06T07:43:27;1.10;;;0.40;;
57023;SDS011;42916;54.346;18.562;2022-09-06T07:45:58;1.40;;;0.50;;
57023;SDS011;42916;54.346;18.562;2022-09-06T07:48:26;2.10;;;0.70;;
57023;SDS011;42916;54.346;18.562;2022-09-06T07:50:55;1.40;;;0.70;;
57023;SDS011;42916;54.346;18.562;2022-09-06T07:53:27;1.20;;;0.50;;
57023;SDS011;42916;54.346;18.562;2022-09-06T07:55:53;1.10;;;0.50;;
57023;SDS011;42916;54.346;18.562;2022-09-06T07:58:20;1.20;;;0.40;;
57023;SDS011;42916;54.346;18.562;2022-09-06T08:00:48;0.50;;;0.50;;
57023;SDS011;42916;54.346;18.562;2022-09-06T08:03:14;0.90;;;0.60;;
57023;SDS011;42916;54.346;18.562;2022-09-06T08:05:41;1.40;;;0.80;;
57023;SDS011;42916;54.346;18.562;2022-09-06T08:08:07;1.60;;;0.80;;
57023;SDS011;42916;54.346;18.562;2022-09-06T08:10:34;2.60;;;0.80;;
57023;SDS011;42916;54.346;18.562;2022-09-06T08:13:00;2.60;;;0.50;;
57023;SDS011;42916;54.346;18.562;2022-09-06T08:15:27;1.30;;;0.50;;
57023;SDS011;42916;54.346;18.562;2022-09-06T08:17:56;2.30;;;0.60;;
57023;SDS011;42916;54.346;18.562;2022-09-06T08:20:22;0.90;;;0.70;;
57023;SDS011;42916;54.346;18.562;2022-09-06T08:22:49;1.30;;;0.70;;
57023;SDS011;42916;54.346;18.562;2022-09-06T08:25:15;0.70;;;0.50;;
57023;SDS011;42916;54.346;18.562;2022-09-06T08:27:42;1.10;;;0.50;;
57023;SDS011;42916;54.346;18.562;2022-09-06T08:30:08;0.60;;;0.50;;
57023;SDS011;42916;54.346;18.562;2022-09-06T08:32:36;0.90;;;0.60;;
57023;SDS011;42916;54.346;18.562;2022-09-06T08:35:04;1.10;;;0.50;;
57023;SDS011;42916;54.346;18.562;2022-09-06T08:37:30;2.70;;;0.70;;
57023;SDS011;42916;54.346;18.562;2022-09-06T08:39:57;1.30;;;0.50;;
57023;SDS011;42916;54.346;18.562;2022-09-06T08:42:24;2.90;;;0.60;;
57023;SDS011;42916;54.346;18.562;2022-09-06T08:44:51;0.60;;;0.40;;
57023;SDS011;42916;54.346;18.562;2022-09-06T08:47:19;0.90;;;0.50;;
57023;SDS011;42916;54.346;18.562;2022-09-06T08:49:50;1.10;;;0.40;;
57023;SDS011;42916;54.346;18.562;2022-09-06T09:00:00;1.70;;;0.40;;
57023;SDS011;42916;54.346;18.562;2022-09-06T09:02:33;0.90;;;0.50;;
57023;SDS011;42916;54.346;18.562;2022-09-06T09:05:12;2.50;;;0.50;;
57023;SDS011;42916;54.346;18.562;2022-09-06T09:07:52;0.80;;;0.40;;
57023;SDS011;42916;54.346;18.562;2022-09-06T09:10:26;1.20;;;0.50;;
57023;SDS011;42916;54.346;18.562;2022-09-06T09:12:54;3.50;;;0.60;;
57023;SDS011;42916;54.346;18.562;2022-09-06T09:15:22;1.60;;;0.50;;
57023;SDS011;42916;54.346;18.562;2022-09-06T09:17:49;1.20;;;0.50;;
57023;SDS011;42916;54.346;18.562;2022-09-06T09:20:18;0.80;;;0.50;;
57023;SDS011;42916;54.346;18.562;2022-09-06T09:22:47;2.60;;;0.50;;
57023;SDS011;42916;54.346;18.562;2022-09-06T09:25:19;1.10;;;0.50;;
57023;SDS011;42916;54.346;18.562;2022-09-06T09:27:47;0.90;;;0.50;;
57023;SDS011;42916;54.346;18.562;2022-09-06T09:30:23;1.50;;;0.60;;
57023;SDS011;42916;54.346;18.562;2022-09-06T09:37:45;0.90;;;0.70;;
57023;SDS011;42916;54.346;18.562;2022-09-06T09:40:30;2.20;;;0.60;;
57023;SDS011;42916;54.346;18.562;2022-09-06T09:43:13;1.00;;;0.70;;
57023;SDS011;42916;54.346;18.562;2022-09-06T09:45:44;1.10;;;0.60;;
57023;SDS011;42916;54.346;18.562;2022-09-06T09:48:31;1.40;;;0.70;;
57023;SDS011;42916;54.346;18.562;2022-09-06T09:50:57;1.00;;;0.60;;
57023;SDS011;42916;54.346;18.562;2022-09-06T09:53:59;1.70;;;0.70;;
57023;SDS011;42916;54.346;18.562;2022-09-06T09:58:58;2.10;;;0.60;;
57023;SDS011;42916;54.346;18.562;2022-09-06T10:01:28;0.90;;;0.60;;
57023;SDS011;42916;54.346;18.562;2022-09-06T10:03:59;1.20;;;0.50;;
57023;SDS011;42916;54.346;18.562;2022-09-06T10:06:30;3.20;;;0.60;;
57023;SDS011;42916;54.346;18.562;2022-09-06T10:08:57;1.60;;;0.70;;
57023;SDS011;42916;54.346;18.562;2022-09-06T10:11:38;0.50;;;0.50;;
57023;SDS011;42916;54.346;18.562;2022-09-06T10:16:53;0.50;;;0.40;;
57023;SDS011;42916;54.346;18.562;2022-09-06T10:19:22;2.60;;;0.50;;
57023;SDS011;42916;54.346;18.562;2022-09-06T10:22:02;0.40;;;0.30;;
57023;SDS011;42916;54.346;18.562;2022-09-06T10:24:43;1.20;;;0.30;;
57023;SDS011;42916;54.346;18.562;2022-09-06T10:27:43;0.70;;;0.50;;
57023;SDS011;42916;54.346;18.562;2022-09-06T10:30:34;1.80;;;0.40;;
57023;SDS011;42916;54.346;18.562;2022-09-06T10:36:20;0.90;;;0.30;;
57023;SDS011;42916;54.346;18.562;2022-09-06T10:42:18;1.00;;;0.60;;
57023;SDS011;42916;54.346;18.562;2022-09-06T10:48:00;2.60;;;0.40;;
57023;SDS011;42916;54.346;18.562;2022-09-06T10:53:15;0.50;;;0.40;;
57023;SDS011;42916;54.346;18.562;2022-09-06T11:01:22;3.00;;;0.50;;
57023;SDS011;42916;54.346;18.562;2022-09-06T11:03:55;2.40;;;0.40;;
57023;SDS011;42916;54.346;18.562;2022-09-06T11:06:27;2.30;;;0.60;;
57023;SDS011;42916;54.346;18.562;2022-09-06T11:09:01;2.50;;;0.50;;
57023;SDS011;42916;54.346;18.562;2022-09-06T11:11:41;0.70;;;0.50;;
57023;SDS011;42916;54.346;18.562;2022-09-06T11:14:14;2.50;;;0.60;;
57023;SDS011;42916;54.346;18.562;2022-09-06T11:16:42;0.60;;;0.50;;
57023;SDS011;42916;54.346;18.562;2022-09-06T11:19:42;2.50;;;0.70;;
57023;SDS011;42916;54.346;18.562;2022-09-06T11:24:59;0.60;;;0.40;;
57023;SDS011;42916;54.346;18.562;2022-09-06T11:27:35;0.70;;;0.60;;
57023;SDS011;42916;54.346;18.562;2022-09-06T11:30:05;1.10;;;0.30;;
57023;SDS011;42916;54.346;18.562;2022-09-06T11:32:41;1.60;;;0.50;;
57023;SDS011;42916;54.346;18.562;2022-09-06T11:35:24;0.80;;;0.40;;
57023;SDS011;42916;54.346;18.562;2022-09-06T11:37:57;1.90;;;0.30;;
57023;SDS011;42916;54.346;18.562;2022-09-06T11:40:28;4.70;;;0.70;;
57023;SDS011;42916;54.346;18.562;2022-09-06T11:51:03;1.20;;;0.40;;
57023;SDS011;42916;54.346;18.562;2022-09-06T11:53:33;0.60;;;0.40;;
57023;SDS011;42916;54.346;18.562;2022-09-06T11:56:39;0.70;;;0.30;;
57023;SDS011;42916;54.346;18.562;2022-09-06T12:04:21;0.60;;;0.30;;
57023;SDS011;42916;54.346;18.562;2022-09-06T12:07:08;1.50;;;0.40;;
57023;SDS011;42916;54.346;18.562;2022-09-06T12:09:40;2.20;;;0.30;;
57023;SDS011;42916;54.346;18.562;2022-09-06T12:12:09;1.10;;;0.40;;
57023;SDS011;42916;54.346;18.562;2022-09-06T12:14:37;1.30;;;0.40;;
57023;SDS011;42916;54.346;18.562;2022-09-06T12:25:26;0.50;;;0.40;;
57023;SDS011;42916;54.346;18.562;2022-09-06T12:28:08;0.70;;;0.30;;
57023;SDS011;42916;54.346;18.562;2022-09-06T12:30:46;1.20;;;0.30;;
57023;SDS011;42916;54.346;18.562;2022-09-06T12:33:24;1.20;;;0.30;;
57023;SDS011;42916;54.346;18.562;2022-09-06T12:39:07;0.90;;;0.40;;
57023;SDS011;42916;54.346;18.562;2022-09-06T12:41:39;0.90;;;0.30;;
57023;SDS011;42916;54.346;18.562;2022-09-06T12:44:08;1.50;;;0.30;;
57023;SDS011;42916;54.346;18.562;2022-09-06T12:46:36;2.90;;;0.40;;
57023;SDS011;42916;54.346;18.562;2022-09-06T12:49:06;0.40;;;0.40;;
57023;SDS011;42916;54.346;18.562;2022-09-06T12:51:40;0.50;;;0.40;;
57023;SDS011;42916;54.346;18.562;2022-09-06T12:56:47;1.80;;;0.50;;
57023;SDS011;42916;54.346;18.562;2022-09-06T12:59:18;2.80;;;0.90;;
57023;SDS011;42916;54.346;18.562;2022-09-06T13:02:01;0.90;;;0.40;;
57023;SDS011;42916;54.346;18.562;2022-09-06T13:05:03;1.30;;;0.40;;
57023;SDS011;42916;54.346;18.562;2022-09-06T13:07:30;2.30;;;0.50;;
57023;SDS011;42916;54.346;18.562;2022-09-06T13:10:00;1.30;;;0.30;;
57023;SDS011;42916;54.346;18.562;2022-09-06T13:17:37;1.60;;;0.30;;
57023;SDS011;42916;54.346;18.562;2022-09-06T13:20:11;3.10;;;0.50;;
57023;SDS011;42916;54.346;18.562;2022-09-06T13:22:41;3.70;;;0.40;;
57023;SDS011;42916;54.346;18.562;2022-09-06T13:27:48;1.50;;;0.50;;
57023;SDS011;42916;54.346;18.562;2022-09-06T13:32:57;1.20;;;0.50;;
57023;SDS011;42916;54.346;18.562;2022-09-06T13:35:24;1.90;;;0.60;;
57023;SDS011;42916;54.346;18.562;2022-09-06T13:40:46;2.40;;;0.60;;
57023;SDS011;42916;54.346;18.562;2022-09-06T13:43:20;2.70;;;0.70;;
57023;SDS011;42916;54.346;18.562;2022-09-06T13:45:56;3.40;;;0.50;;
57023;SDS011;42916;54.346;18.562;2022-09-06T13:48:32;3.00;;;0.70;;
57023;SDS011;42916;54.346;18.562;2022-09-06T13:50:59;2.80;;;0.60;;
57023;SDS011;42916;54.346;18.562;2022-09-06T13:53:29;4.30;;;0.50;;
57023;SDS011;42916;54.346;18.562;2022-09-06T13:55:56;2.20;;;0.70;;
57023;SDS011;42916;54.346;18.562;2022-09-06T13:58:24;2.40;;;0.70;;
57023;SDS011;42916;54.346;18.562;2022-09-06T14:00:54;2.50;;;0.50;;
57023;SDS011;42916;54.346;18.562;2022-09-06T14:03:22;2.10;;;0.50;;
57023;SDS011;42916;54.346;18.562;2022-09-06T14:05:53;2.50;;;0.50;;
57023;SDS011;42916;54.346;18.562;2022-09-06T14:08:20;3.00;;;0.50;;
57023;SDS011;42916;54.346;18.562;2022-09-06T14:10:46;2.30;;;0.60;;
57023;SDS011;42916;54.346;18.562;2022-09-06T14:13:14;1.40;;;0.50;;
57023;SDS011;42916;54.346;18.562;2022-09-06T14:15:42;1.50;;;0.60;;
57023;SDS011;42916;54.346;18.562;2022-09-06T14:18:08;4.20;;;0.80;;
57023;SDS011;42916;54.346;18.562;2022-09-06T14:20:35;3.50;;;0.60;;
57023;SDS011;42916;54.346;18.562;2022-09-06T14:23:01;2.80;;;0.70;;
57023;SDS011;42916;54.346;18.562;2022-09-06T14:25:29;2.50;;;0.70;;
57023;SDS011;42916;54.346;18.562;2022-09-06T14:27:56;4.70;;;0.80;;
57023;SDS011;42916;54.346;18.562;2022-09-06T14:30:22;1.30;;;0.40;;
57023;SDS011;42916;54.346;18.562;2022-09-06T14:32:49;2.10;;;0.60;;
57023;SDS011;42916;54.346;18.562;2022-09-06T14:35:16;2.40;;;0.70;;
57023;SDS011;42916;54.346;18.562;2022-09-06T14:37:43;2.50;;;1.10;;
57023;SDS011;42916;54.346;18.562;2022-09-06T14:40:09;3.40;;;1.10;;
57023;SDS011;42916;54.346;18.562;2022-09-06T14:42:36;3.40;;;0.80;;
57023;SDS011;42916;54.346;18.562;2022-09-06T14:45:03;4.90;;;0.80;;
57023;SDS011;42916;54.346;18.562;2022-09-06T14:47:30;1.60;;;0.60;;
57023;SDS011;42916;54.346;18.562;2022-09-06T14:49:57;1.10;;;0.60;;
57023;SDS011;42916;54.346;18.562;2022-09-06T14:52:23;2.20;;;0.60;;
57023;SDS011;42916;54.346;18.562;2022-09-06T14:54:50;2.40;;;0.70;;
57023;SDS011;42916;54.346;18.562;2022-09-06T14:57:17;2.30;;;0.40;;
57023;SDS011;42916;54.346;18.562;2022-09-06T14:59:43;2.00;;;0.50;;
57023;SDS011;42916;54.346;18.562;2022-09-06T15:02:10;1.70;;;0.30;;
57023;SDS011;42916;54.346;18.562;2022-09-06T15:04:37;2.00;;;0.50;;
57023;SDS011;42916;54.346;18.562;2022-09-06T15:07:04;0.80;;;0.50;;
57023;SDS011;42916;54.346;18.562;2022-09-06T15:09:31;3.30;;;0.60;;
57023;SDS011;42916;54.346;18.562;2022-09-06T15:11:58;2.90;;;0.50;;
57023;SDS011;42916;54.346;18.562;2022-09-06T15:14:25;0.80;;;0.50;;
57023;SDS011;42916;54.346;18.562;2022-09-06T15:16:55;3.90;;;0.50;;
57023;SDS011;42916;54.346;18.562;2022-09-06T15:19:25;3.00;;;0.50;;
57023;SDS011;42916;54.346;18.562;2022-09-06T15:21:53;3.30;;;0.70;;
57023;SDS011;42916;54.346;18.562;2022-09-06T15:24:23;2.90;;;0.60;;
57023;SDS011;42916;54.346;18.562;2022-09-06T15:26:50;2.40;;;0.60;;
57023;SDS011;42916;54.346;18.562;2022-09-06T15:29:17;4.40;;;0.60;;
57023;SDS011;42916;54.346;18.562;2022-09-06T15:31:43;3.10;;;0.60;;
57023;SDS011;42916;54.346;18.562;2022-09-06T15:34:16;2.20;;;0.70;;
57023;SDS011;42916;54.346;18.562;2022-09-06T15:36:43;1.10;;;0.60;;
57023;SDS011;42916;54.346;18.562;2022-09-06T15:39:10;0.80;;;0.60;;
57023;SDS011;42916;54.346;18.562;2022-09-06T15:41:38;3.10;;;1.30;;
57023;SDS011;42916;54.346;18.562;2022-09-06T15:44:07;4.30;;;0.80;;
57023;SDS011;42916;54.346;18.562;2022-09-06T15:51:53;3.00;;;1.20;;
57023;SDS011;42916;54.346;18.562;2022-09-06T15:54:22;2.00;;;0.90;;
57023;SDS011;42916;54.346;18.562;2022-09-06T15:57:08;3.50;;;0.80;;
57023;SDS011;42916;54.346;18.562;2022-09-06T15:59:35;1.20;;;0.70;;
57023;SDS011;42916;54.346;18.562;2022-09-06T16:02:03;2.50;;;0.70;;
57023;SDS011;42916;54.346;18.562;2022-09-06T16:04:30;1.90;;;0.70;;
57023;SDS011;42916;54.346;18.562;2022-09-06T16:06:57;3.40;;;0.80;;
57023;SDS011;42916;54.346;18.562;2022-09-06T16:09:23;3.30;;;0.90;;
57023;SDS011;42916;54.346;18.562;2022-09-06T16:11:50;2.60;;;1.10;;
57023;SDS011;42916;54.346;18.562;2022-09-06T16:14:17;2.30;;;0.80;;
57023;SDS011;42916;54.346;18.562;2022-09-06T16:16:44;3.60;;;0.90;;
57023;SDS011;42916;54.346;18.562;2022-09-06T16:19:11;2.30;;;0.80;;
57023;SDS011;42916;54.346;18.562;2022-09-06T16:21:39;1.40;;;0.80;;
57023;SDS011;42916;54.346;18.562;2022-09-06T16:24:08;2.30;;;0.90;;
57023;SDS011;42916;54.346;18.562;2022-09-06T16:26:38;1.10;;;0.60;;
57023;SDS011;42916;54.346;18.562;2022-09-06T16:29:09;1.60;;;0.80;;
57023;SDS011;42916;54.346;18.562;2022-09-06T16:31:37;4.60;;;0.90;;
57023;SDS011;42916;54.346;18.562;2022-09-06T16:34:03;1.90;;;0.90;;
57023;SDS011;42916;54.346;18.562;2022-09-06T16:36:30;1.50;;;0.70;;
57023;SDS011;42916;54.346;18.562;2022-09-06T16:38:57;3.30;;;0.80;;
57023;SDS011;42916;54.346;18.562;2022-09-06T16:41:24;3.50;;;0.90;;
57023;SDS011;42916;54.346;18.562;2022-09-06T16:44:17;5.90;;;1.30;;
57023;SDS011;42916;54.346;18.562;2022-09-06T16:46:45;2.00;;;0.90;;
57023;SDS011;42916;54.346;18.562;2022-09-06T16:49:14;2.50;;;0.90;;
57023;SDS011;42916;54.346;18.562;2022-09-06T16:51:46;4.00;;;1.00;;
57023;SDS011;42916;54.346;18.562;2022-09-06T16:54:17;1.00;;;0.80;;